sensor_id;sensor_type;location;lat;lon;timestamp;P1;durP1;ratioP1;P2;durP2;ratioP2
69894;SDS011;57172;52.034;5.090;2023-05-07T00:01:22;30.42;;;19.17;;
69894;SDS011;57172;52.034;5.090;2023-05-07T00:03:49;30.23;;;19.23;;
69894;SDS011;57172;52.034;5.090;2023-05-07T00:06:16;30.53;;;19.43;;
69894;SDS011;57172;52.034;5.090;2023-05-07T00:08:43;30.52;;;19.45;;
69894;SDS011;57172;52.034;5.090;2023-05-07T00:11:10;27.80;;;19.27;;
69894;SDS011;57172;52.034;5.090;2023-05-07T00:13:37;32.35;;;19.40;;
69894;SDS011;57172;52.034;5.090;2023-05-07T00:16:04;31.25;;;19.13;;
69894;SDS011;57172;52.034;5.090;2023-05-07T00:18:31;30.67;;;19.23;;
69894;SDS011;57172;52.034;5.090;2023-05-07T00:20:58;30.88;;;19.00;;
69894;SDS011;57172;52.034;5.090;2023-05-07T00:23:25;29.17;;;18.75;;
69894;SDS011;57172;52.034;5.090;2023-05-07T00:25:52;28.02;;;18.48;;
69894;SDS011;57172;52.034;5.090;2023-05-07T00:28:18;26.10;;;18.02;;
69894;SDS011;57172;52.034;5.090;2023-05-07T00:30:45;26.47;;;18.27;;
69894;SDS011;57172;52.034;5.090;2023-05-07T00:33:12;26.35;;;17.77;;
69894;SDS011;57172;52.034;5.090;2023-05-07T00:35:39;22.83;;;16.65;;
69894;SDS011;57172;52.034;5.090;2023-05-07T00:38:06;25.52;;;16.88;;
69894;SDS011;57172;52.034;5.090;2023-05-07T00:40:33;23.00;;;16.42;;
69894;SDS011;57172;52.034;5.090;2023-05-07T00:43:00;23.03;;;16.87;;
69894;SDS011;57172;52.034;5.090;2023-05-07T00:45:27;21.38;;;16.23;;
69894;SDS011;57172;52.034;5.090;2023-05-07T00:47:55;22.80;;;16.13;;
69894;SDS011;57172;52.034;5.090;2023-05-07T00:50:24;22.45;;;16.23;;
69894;SDS011;57172;52.034;5.090;2023-05-07T00:52:55;21.63;;;15.85;;
69894;SDS011;57172;52.034;5.090;2023-05-07T00:55:23;21.30;;;15.83;;
69894;SDS011;57172;52.034;5.090;2023-05-07T00:57:50;23.90;;;15.98;;
69894;SDS011;57172;52.034;5.090;2023-05-07T01:00:18;21.35;;;15.40;;
69894;SDS011;57172;52.034;5.090;2023-05-07T01:02:46;23.92;;;15.15;;
69894;SDS011;57172;52.034;5.090;2023-05-07T01:05:14;22.52;;;15.73;;
69894;SDS011;57172;52.034;5.090;2023-05-07T01:07:43;23.20;;;15.17;;
69894;SDS011;57172;52.034;5.090;2023-05-07T01:10:11;19.02;;;14.52;;
69894;SDS011;57172;52.034;5.090;2023-05-07T01:12:39;20.90;;;14.05;;
69894;SDS011;57172;52.034;5.090;2023-05-07T01:15:08;23.27;;;14.80;;
69894;SDS011;57172;52.034;5.090;2023-05-07T01:17:36;20.75;;;14.25;;
69894;SDS011;57172;52.034;5.090;2023-05-07T01:20:11;19.53;;;14.17;;
69894;SDS011;57172;52.034;5.090;2023-05-07T01:22:39;22.55;;;15.10;;
69894;SDS011;57172;52.034;5.090;2023-05-07T01:25:07;19.67;;;14.55;;
69894;SDS011;57172;52.034;5.090;2023-05-07T01:27:39;19.52;;;14.55;;
69894;SDS011;57172;52.034;5.090;2023-05-07T01:30:06;20.75;;;14.30;;
69894;SDS011;57172;52.034;5.090;2023-05-07T01:32:36;22.83;;;14.70;;
69894;SDS011;57172;52.034;5.090;2023-05-07T01:35:25;19.33;;;14.25;;
69894;SDS011;57172;52.034;5.090;2023-05-07T01:37:56;22.05;;;13.95;;
69894;SDS011;57172;52.034;5.090;2023-05-07T01:40:24;20.63;;;13.77;;
69894;SDS011;57172;52.034;5.090;2023-05-07T01:42:52;19.02;;;13.93;;
69894;SDS011;57172;52.034;5.090;2023-05-07T01:45:20;19.40;;;14.13;;
69894;SDS011;57172;52.034;5.090;2023-05-07T01:47:47;19.23;;;14.35;;
69894;SDS011;57172;52.034;5.090;2023-05-07T01:50:15;21.58;;;14.32;;
69894;SDS011;57172;52.034;5.090;2023-05-07T01:52:44;20.13;;;14.55;;
69894;SDS011;57172;52.034;5.090;2023-05-07T01:55:11;20.63;;;13.80;;
69894;SDS011;57172;52.034;5.090;2023-05-07T01:57:39;19.37;;;13.17;;
69894;SDS011;57172;52.034;5.090;2023-05-07T02:00:06;18.95;;;14.13;;
69894;SDS011;57172;52.034;5.090;2023-05-07T02:02:41;18.58;;;13.10;;
69894;SDS011;57172;52.034;5.090;2023-05-07T02:05:19;18.20;;;13.35;;
69894;SDS011;57172;52.034;5.090;2023-05-07T02:07:53;21.63;;;14.10;;
69894;SDS011;57172;52.034;5.090;2023-05-07T02:10:20;18.57;;;13.27;;
69894;SDS011;57172;52.034;5.090;2023-05-07T02:12:47;18.63;;;12.93;;
69894;SDS011;57172;52.034;5.090;2023-05-07T02:15:14;17.73;;;11.88;;
69894;SDS011;57172;52.034;5.090;2023-05-07T02:20:35;16.77;;;11.88;;
69894;SDS011;57172;52.034;5.090;2023-05-07T02:23:02;18.40;;;11.70;;
69894;SDS011;57172;52.034;5.090;2023-05-07T02:25:29;16.02;;;11.63;;
69894;SDS011;57172;52.034;5.090;2023-05-07T02:27:57;19.02;;;11.77;;
69894;SDS011;57172;52.034;5.090;2023-05-07T02:30:36;15.00;;;11.30;;
69894;SDS011;57172;52.034;5.090;2023-05-07T02:33:04;18.50;;;12.25;;
69894;SDS011;57172;52.034;5.090;2023-05-07T02:35:32;15.00;;;11.47;;
69894;SDS011;57172;52.034;5.090;2023-05-07T02:37:59;18.27;;;12.13;;
69894;SDS011;57172;52.034;5.090;2023-05-07T02:40:26;15.73;;;11.82;;
69894;SDS011;57172;52.034;5.090;2023-05-07T02:42:53;16.37;;;11.77;;
69894;SDS011;57172;52.034;5.090;2023-05-07T02:45:20;18.15;;;12.40;;
69894;SDS011;57172;52.034;5.090;2023-05-07T02:47:49;17.05;;;11.57;;
69894;SDS011;57172;52.034;5.090;2023-05-07T02:50:16;16.02;;;12.10;;
69894;SDS011;57172;52.034;5.090;2023-05-07T02:52:43;18.05;;;11.77;;
69894;SDS011;57172;52.034;5.090;2023-05-07T02:55:10;17.10;;;12.37;;
69894;SDS011;57172;52.034;5.090;2023-05-07T02:57:37;18.67;;;12.30;;
69894;SDS011;57172;52.034;5.090;2023-05-07T03:00:15;18.77;;;12.55;;
69894;SDS011;57172;52.034;5.090;2023-05-07T03:02:51;18.85;;;12.07;;
69894;SDS011;57172;52.034;5.090;2023-05-07T03:05:18;19.20;;;12.50;;
69894;SDS011;57172;52.034;5.090;2023-05-07T03:07:45;20.23;;;13.20;;
69894;SDS011;57172;52.034;5.090;2023-05-07T03:10:13;19.42;;;13.25;;
69894;SDS011;57172;52.034;5.090;2023-05-07T03:12:40;20.05;;;13.77;;
69894;SDS011;57172;52.034;5.090;2023-05-07T03:15:09;19.20;;;13.05;;
69894;SDS011;57172;52.034;5.090;2023-05-07T03:17:40;18.60;;;13.18;;
69894;SDS011;57172;52.034;5.090;2023-05-07T03:20:08;20.20;;;13.80;;
69894;SDS011;57172;52.034;5.090;2023-05-07T03:22:37;22.00;;;14.07;;
69894;SDS011;57172;52.034;5.090;2023-05-07T03:25:04;19.65;;;13.77;;
69894;SDS011;57172;52.034;5.090;2023-05-07T03:27:31;23.92;;;14.40;;
69894;SDS011;57172;52.034;5.090;2023-05-07T03:29:59;19.65;;;13.65;;
69894;SDS011;57172;52.034;5.090;2023-05-07T03:32:26;21.63;;;13.93;;
69894;SDS011;57172;52.034;5.090;2023-05-07T03:34:53;20.05;;;14.23;;
69894;SDS011;57172;52.034;5.090;2023-05-07T03:37:20;22.75;;;15.00;;
69894;SDS011;57172;52.034;5.090;2023-05-07T03:39:48;19.75;;;13.93;;
69894;SDS011;57172;52.034;5.090;2023-05-07T03:42:15;21.20;;;15.05;;
69894;SDS011;57172;52.034;5.090;2023-05-07T03:44:42;24.33;;;15.50;;
69894;SDS011;57172;52.034;5.090;2023-05-07T03:47:09;20.67;;;14.02;;
69894;SDS011;57172;52.034;5.090;2023-05-07T03:49:37;23.05;;;15.50;;
69894;SDS011;57172;52.034;5.090;2023-05-07T03:52:04;25.60;;;14.77;;
69894;SDS011;57172;52.034;5.090;2023-05-07T03:54:32;25.27;;;15.35;;
69894;SDS011;57172;52.034;5.090;2023-05-07T03:57:00;25.33;;;15.63;;
69894;SDS011;57172;52.034;5.090;2023-05-07T03:59:27;20.83;;;14.82;;
69894;SDS011;57172;52.034;5.090;2023-05-07T04:01:54;23.35;;;15.38;;
69894;SDS011;57172;52.034;5.090;2023-05-07T04:04:22;22.42;;;15.45;;
69894;SDS011;57172;52.034;5.090;2023-05-07T04:06:49;24.50;;;15.90;;
69894;SDS011;57172;52.034;5.090;2023-05-07T04:09:17;23.07;;;15.90;;
69894;SDS011;57172;52.034;5.090;2023-05-07T04:11:46;23.73;;;16.85;;
69894;SDS011;57172;52.034;5.090;2023-05-07T04:14:13;25.40;;;16.88;;
69894;SDS011;57172;52.034;5.090;2023-05-07T04:16:40;24.83;;;16.02;;
69894;SDS011;57172;52.034;5.090;2023-05-07T04:19:07;22.35;;;15.70;;
69894;SDS011;57172;52.034;5.090;2023-05-07T04:21:36;23.17;;;16.03;;
69894;SDS011;57172;52.034;5.090;2023-05-07T04:24:03;25.80;;;16.50;;
69894;SDS011;57172;52.034;5.090;2023-05-07T04:26:30;27.52;;;17.40;;
69894;SDS011;57172;52.034;5.090;2023-05-07T04:28:58;24.52;;;16.85;;
69894;SDS011;57172;52.034;5.090;2023-05-07T04:31:30;25.15;;;16.40;;
69894;SDS011;57172;52.034;5.090;2023-05-07T04:33:58;24.00;;;16.83;;
69894;SDS011;57172;52.034;5.090;2023-05-07T04:36:25;26.55;;;17.25;;
69894;SDS011;57172;52.034;5.090;2023-05-07T04:38:59;22.85;;;16.65;;
69894;SDS011;57172;52.034;5.090;2023-05-07T04:41:26;24.95;;;17.60;;
69894;SDS011;57172;52.034;5.090;2023-05-07T04:43:54;25.42;;;16.42;;
69894;SDS011;57172;52.034;5.090;2023-05-07T04:46:23;24.40;;;16.53;;
69894;SDS011;57172;52.034;5.090;2023-05-07T04:48:52;27.15;;;17.55;;
69894;SDS011;57172;52.034;5.090;2023-05-07T04:51:19;25.60;;;17.50;;
69894;SDS011;57172;52.034;5.090;2023-05-07T04:53:46;26.98;;;17.50;;
69894;SDS011;57172;52.034;5.090;2023-05-07T04:56:13;25.63;;;18.00;;
69894;SDS011;57172;52.034;5.090;2023-05-07T04:58:42;27.80;;;17.53;;
69894;SDS011;57172;52.034;5.090;2023-05-07T05:01:09;24.73;;;17.42;;
69894;SDS011;57172;52.034;5.090;2023-05-07T05:03:37;26.95;;;18.15;;
69894;SDS011;57172;52.034;5.090;2023-05-07T05:06:06;27.27;;;17.70;;
69894;SDS011;57172;52.034;5.090;2023-05-07T05:08:33;26.30;;;18.08;;
69894;SDS011;57172;52.034;5.090;2023-05-07T05:11:02;26.50;;;17.93;;
69894;SDS011;57172;52.034;5.090;2023-05-07T05:13:31;26.52;;;17.92;;
69894;SDS011;57172;52.034;5.090;2023-05-07T05:15:59;27.42;;;18.42;;
69894;SDS011;57172;52.034;5.090;2023-05-07T05:18:29;28.08;;;18.42;;
69894;SDS011;57172;52.034;5.090;2023-05-07T05:20:55;26.88;;;18.42;;
69894;SDS011;57172;52.034;5.090;2023-05-07T05:23:22;30.47;;;19.10;;
69894;SDS011;57172;52.034;5.090;2023-05-07T05:25:49;26.92;;;18.05;;
69894;SDS011;57172;52.034;5.090;2023-05-07T05:28:21;29.88;;;19.25;;
69894;SDS011;57172;52.034;5.090;2023-05-07T05:30:48;29.23;;;18.63;;
69894;SDS011;57172;52.034;5.090;2023-05-07T05:33:17;27.98;;;18.48;;
69894;SDS011;57172;52.034;5.090;2023-05-07T05:35:43;25.73;;;18.30;;
69894;SDS011;57172;52.034;5.090;2023-05-07T05:38:13;26.25;;;18.40;;
69894;SDS011;57172;52.034;5.090;2023-05-07T05:40:40;26.98;;;18.27;;
69894;SDS011;57172;52.034;5.090;2023-05-07T05:43:07;27.88;;;18.38;;
69894;SDS011;57172;52.034;5.090;2023-05-07T05:45:36;26.15;;;17.95;;
69894;SDS011;57172;52.034;5.090;2023-05-07T05:48:04;27.93;;;18.00;;
69894;SDS011;57172;52.034;5.090;2023-05-07T05:50:32;26.85;;;18.05;;
69894;SDS011;57172;52.034;5.090;2023-05-07T05:52:59;26.75;;;17.95;;
69894;SDS011;57172;52.034;5.090;2023-05-07T05:55:27;27.75;;;17.88;;
69894;SDS011;57172;52.034;5.090;2023-05-07T05:57:54;24.52;;;17.67;;
69894;SDS011;57172;52.034;5.090;2023-05-07T06:00:23;24.23;;;16.87;;
69894;SDS011;57172;52.034;5.090;2023-05-07T06:02:57;24.05;;;16.52;;
69894;SDS011;57172;52.034;5.090;2023-05-07T06:05:25;24.55;;;16.70;;
69894;SDS011;57172;52.034;5.090;2023-05-07T06:07:54;21.60;;;15.93;;
69894;SDS011;57172;52.034;5.090;2023-05-07T06:10:21;22.92;;;16.60;;
69894;SDS011;57172;52.034;5.090;2023-05-07T06:12:48;24.80;;;16.97;;
69894;SDS011;57172;52.034;5.090;2023-05-07T06:15:16;25.55;;;17.05;;
69894;SDS011;57172;52.034;5.090;2023-05-07T06:17:44;25.10;;;16.65;;
69894;SDS011;57172;52.034;5.090;2023-05-07T06:20:11;24.08;;;16.65;;
69894;SDS011;57172;52.034;5.090;2023-05-07T06:22:39;24.50;;;16.95;;
69894;SDS011;57172;52.034;5.090;2023-05-07T06:25:08;24.37;;;16.90;;
69894;SDS011;57172;52.034;5.090;2023-05-07T06:27:36;24.73;;;16.92;;
69894;SDS011;57172;52.034;5.090;2023-05-07T06:30:02;24.45;;;16.92;;
69894;SDS011;57172;52.034;5.090;2023-05-07T06:32:31;23.10;;;16.80;;
69894;SDS011;57172;52.034;5.090;2023-05-07T06:34:57;24.67;;;16.85;;
69894;SDS011;57172;52.034;5.090;2023-05-07T06:37:25;25.40;;;17.67;;
69894;SDS011;57172;52.034;5.090;2023-05-07T06:39:56;23.52;;;16.73;;
69894;SDS011;57172;52.034;5.090;2023-05-07T06:42:26;23.77;;;16.95;;
69894;SDS011;57172;52.034;5.090;2023-05-07T06:44:57;26.00;;;17.30;;
69894;SDS011;57172;52.034;5.090;2023-05-07T06:47:25;23.75;;;17.15;;
69894;SDS011;57172;52.034;5.090;2023-05-07T06:49:54;26.23;;;17.10;;
69894;SDS011;57172;52.034;5.090;2023-05-07T06:52:24;24.10;;;16.67;;
69894;SDS011;57172;52.034;5.090;2023-05-07T06:54:52;23.50;;;16.23;;
69894;SDS011;57172;52.034;5.090;2023-05-07T06:57:21;23.92;;;16.73;;
69894;SDS011;57172;52.034;5.090;2023-05-07T06:59:48;24.33;;;16.08;;
69894;SDS011;57172;52.034;5.090;2023-05-07T07:02:15;20.43;;;15.87;;
69894;SDS011;57172;52.034;5.090;2023-05-07T07:04:44;26.23;;;16.65;;
69894;SDS011;57172;52.034;5.090;2023-05-07T07:07:12;22.38;;;16.17;;
69894;SDS011;57172;52.034;5.090;2023-05-07T07:09:42;23.33;;;16.58;;
69894;SDS011;57172;52.034;5.090;2023-05-07T07:12:09;23.33;;;15.82;;
69894;SDS011;57172;52.034;5.090;2023-05-07T07:14:38;22.60;;;15.80;;
69894;SDS011;57172;52.034;5.090;2023-05-07T07:17:06;21.90;;;14.77;;
69894;SDS011;57172;52.034;5.090;2023-05-07T07:19:33;22.23;;;15.63;;
69894;SDS011;57172;52.034;5.090;2023-05-07T07:22:02;20.52;;;15.05;;
69894;SDS011;57172;52.034;5.090;2023-05-07T07:24:29;26.33;;;15.93;;
69894;SDS011;57172;52.034;5.090;2023-05-07T07:27:16;24.40;;;16.17;;
69894;SDS011;57172;52.034;5.090;2023-05-07T07:29:43;23.73;;;15.90;;
69894;SDS011;57172;52.034;5.090;2023-05-07T07:32:10;24.30;;;16.70;;
69894;SDS011;57172;52.034;5.090;2023-05-07T07:34:37;24.77;;;16.77;;
69894;SDS011;57172;52.034;5.090;2023-05-07T07:37:05;22.00;;;16.17;;
69894;SDS011;57172;52.034;5.090;2023-05-07T07:39:34;22.77;;;16.43;;
69894;SDS011;57172;52.034;5.090;2023-05-07T07:42:01;24.85;;;16.80;;
69894;SDS011;57172;52.034;5.090;2023-05-07T07:44:29;23.13;;;16.75;;
69894;SDS011;57172;52.034;5.090;2023-05-07T07:47:01;21.75;;;16.10;;
69894;SDS011;57172;52.034;5.090;2023-05-07T07:49:28;24.17;;;16.30;;
69894;SDS011;57172;52.034;5.090;2023-05-07T07:51:57;24.57;;;15.87;;
69894;SDS011;57172;52.034;5.090;2023-05-07T07:54:26;22.80;;;16.10;;
69894;SDS011;57172;52.034;5.090;2023-05-07T07:56:53;23.08;;;16.08;;
69894;SDS011;57172;52.034;5.090;2023-05-07T07:59:21;23.45;;;16.83;;
69894;SDS011;57172;52.034;5.090;2023-05-07T08:01:49;21.35;;;15.75;;
69894;SDS011;57172;52.034;5.090;2023-05-07T08:04:22;21.27;;;15.47;;
69894;SDS011;57172;52.034;5.090;2023-05-07T08:06:50;23.13;;;15.57;;
69894;SDS011;57172;52.034;5.090;2023-05-07T08:09:17;21.23;;;15.55;;
69894;SDS011;57172;52.034;5.090;2023-05-07T08:11:45;21.20;;;15.75;;
69894;SDS011;57172;52.034;5.090;2023-05-07T08:14:12;21.55;;;14.52;;
69894;SDS011;57172;52.034;5.090;2023-05-07T08:16:40;21.37;;;15.50;;
69894;SDS011;57172;52.034;5.090;2023-05-07T08:19:07;21.80;;;15.73;;
69894;SDS011;57172;52.034;5.090;2023-05-07T08:21:34;21.38;;;14.48;;
69894;SDS011;57172;52.034;5.090;2023-05-07T08:24:01;20.65;;;14.90;;
69894;SDS011;57172;52.034;5.090;2023-05-07T08:26:28;23.70;;;14.40;;
69894;SDS011;57172;52.034;5.090;2023-05-07T08:28:55;18.73;;;14.53;;
69894;SDS011;57172;52.034;5.090;2023-05-07T08:31:22;19.15;;;14.10;;
69894;SDS011;57172;52.034;5.090;2023-05-07T08:36:46;20.90;;;13.60;;
69894;SDS011;57172;52.034;5.090;2023-05-07T08:39:16;18.17;;;13.45;;
69894;SDS011;57172;52.034;5.090;2023-05-07T08:41:46;18.33;;;13.03;;
69894;SDS011;57172;52.034;5.090;2023-05-07T08:44:15;20.48;;;13.63;;
69894;SDS011;57172;52.034;5.090;2023-05-07T08:46:46;17.20;;;13.05;;
69894;SDS011;57172;52.034;5.090;2023-05-07T08:49:16;17.70;;;12.77;;
69894;SDS011;57172;52.034;5.090;2023-05-07T08:51:43;16.15;;;12.38;;
69894;SDS011;57172;52.034;5.090;2023-05-07T08:54:15;15.07;;;11.97;;
69894;SDS011;57172;52.034;5.090;2023-05-07T08:56:42;16.80;;;11.77;;
69894;SDS011;57172;52.034;5.090;2023-05-07T08:59:09;14.35;;;10.93;;
69894;SDS011;57172;52.034;5.090;2023-05-07T09:01:37;14.52;;;10.90;;
69894;SDS011;57172;52.034;5.090;2023-05-07T09:04:05;14.55;;;10.82;;
69894;SDS011;57172;52.034;5.090;2023-05-07T09:06:33;15.27;;;11.27;;
69894;SDS011;57172;52.034;5.090;2023-05-07T09:09:01;14.63;;;11.02;;
69894;SDS011;57172;52.034;5.090;2023-05-07T09:11:29;11.75;;;9.77;;
69894;SDS011;57172;52.034;5.090;2023-05-07T09:13:59;13.02;;;8.70;;
69894;SDS011;57172;52.034;5.090;2023-05-07T09:16:31;10.52;;;6.90;;
69894;SDS011;57172;52.034;5.090;2023-05-07T09:18:59;12.27;;;7.17;;
69894;SDS011;57172;52.034;5.090;2023-05-07T09:21:27;9.88;;;7.00;;
69894;SDS011;57172;52.034;5.090;2023-05-07T09:23:57;10.50;;;6.75;;
69894;SDS011;57172;52.034;5.090;2023-05-07T09:26:31;10.35;;;6.60;;
69894;SDS011;57172;52.034;5.090;2023-05-07T09:29:01;10.27;;;6.68;;
69894;SDS011;57172;52.034;5.090;2023-05-07T09:31:28;9.13;;;6.53;;
69894;SDS011;57172;52.034;5.090;2023-05-07T09:33:55;8.88;;;6.70;;
69894;SDS011;57172;52.034;5.090;2023-05-07T09:36:26;8.82;;;6.40;;
69894;SDS011;57172;52.034;5.090;2023-05-07T09:38:53;10.80;;;6.40;;
69894;SDS011;57172;52.034;5.090;2023-05-07T09:41:21;8.75;;;5.97;;
69894;SDS011;57172;52.034;5.090;2023-05-07T09:44:06;8.47;;;5.97;;
69894;SDS011;57172;52.034;5.090;2023-05-07T09:46:41;8.70;;;6.20;;
69894;SDS011;57172;52.034;5.090;2023-05-07T09:49:20;8.40;;;6.28;;
69894;SDS011;57172;52.034;5.090;2023-05-07T09:51:50;10.55;;;7.65;;
69894;SDS011;57172;52.034;5.090;2023-05-07T09:54:22;9.43;;;7.07;;
69894;SDS011;57172;52.034;5.090;2023-05-07T09:56:52;9.47;;;7.37;;
69894;SDS011;57172;52.034;5.090;2023-05-07T09:59:23;10.40;;;7.50;;
69894;SDS011;57172;52.034;5.090;2023-05-07T10:01:56;9.55;;;6.95;;
69894;SDS011;57172;52.034;5.090;2023-05-07T10:04:26;7.70;;;5.90;;
69894;SDS011;57172;52.034;5.090;2023-05-07T10:06:53;8.20;;;5.93;;
69894;SDS011;57172;52.034;5.090;2023-05-07T10:09:22;8.37;;;5.53;;
69894;SDS011;57172;52.034;5.090;2023-05-07T10:11:50;10.20;;;6.30;;
69894;SDS011;57172;52.034;5.090;2023-05-07T10:14:20;9.15;;;6.30;;
69894;SDS011;57172;52.034;5.090;2023-05-07T10:16:48;9.80;;;7.20;;
69894;SDS011;57172;52.034;5.090;2023-05-07T10:19:18;9.32;;;7.22;;
69894;SDS011;57172;52.034;5.090;2023-05-07T10:21:52;9.97;;;6.70;;
69894;SDS011;57172;52.034;5.090;2023-05-07T10:24:29;8.30;;;6.20;;
69894;SDS011;57172;52.034;5.090;2023-05-07T10:27:04;8.00;;;6.18;;
69894;SDS011;57172;52.034;5.090;2023-05-07T10:32:49;7.88;;;4.88;;
69894;SDS011;57172;52.034;5.090;2023-05-07T10:35:27;10.37;;;4.67;;
69894;SDS011;57172;52.034;5.090;2023-05-07T10:38:00;9.13;;;4.80;;
69894;SDS011;57172;52.034;5.090;2023-05-07T10:40:30;9.25;;;5.75;;
69894;SDS011;57172;52.034;5.090;2023-05-07T10:42:59;10.35;;;5.97;;
69894;SDS011;57172;52.034;5.090;2023-05-07T10:45:33;7.03;;;5.75;;
69894;SDS011;57172;52.034;5.090;2023-05-07T10:48:05;8.83;;;6.60;;
69894;SDS011;57172;52.034;5.090;2023-05-07T10:56:46;10.75;;;6.97;;
69894;SDS011;57172;52.034;5.090;2023-05-07T11:02:02;9.90;;;7.40;;
69894;SDS011;57172;52.034;5.090;2023-05-07T11:04:45;10.00;;;7.22;;
69894;SDS011;57172;52.034;5.090;2023-05-07T11:07:53;9.45;;;7.20;;
69894;SDS011;57172;52.034;5.090;2023-05-07T11:16:34;10.20;;;7.60;;
69894;SDS011;57172;52.034;5.090;2023-05-07T11:25:09;9.50;;;7.20;;
69894;SDS011;57172;52.034;5.090;2023-05-07T11:27:37;10.98;;;8.35;;
69894;SDS011;57172;52.034;5.090;2023-05-07T11:30:04;10.53;;;8.13;;
69894;SDS011;57172;52.034;5.090;2023-05-07T11:32:32;11.65;;;8.23;;
69894;SDS011;57172;52.034;5.090;2023-05-07T11:35:00;10.00;;;8.23;;
69894;SDS011;57172;52.034;5.090;2023-05-07T11:37:27;10.38;;;8.77;;
69894;SDS011;57172;52.034;5.090;2023-05-07T11:40:04;12.88;;;8.23;;
69894;SDS011;57172;52.034;5.090;2023-05-07T11:42:33;9.63;;;8.20;;
69894;SDS011;57172;52.034;5.090;2023-05-07T11:45:05;10.30;;;8.90;;
69894;SDS011;57172;52.034;5.090;2023-05-07T11:47:33;10.52;;;8.40;;
69894;SDS011;57172;52.034;5.090;2023-05-07T11:50:07;10.38;;;8.32;;
69894;SDS011;57172;52.034;5.090;2023-05-07T11:52:34;11.48;;;8.52;;
69894;SDS011;57172;52.034;5.090;2023-05-07T11:55:02;10.87;;;7.70;;
69894;SDS011;57172;52.034;5.090;2023-05-07T11:57:32;10.60;;;7.80;;
69894;SDS011;57172;52.034;5.090;2023-05-07T12:00:00;9.93;;;8.05;;
69894;SDS011;57172;52.034;5.090;2023-05-07T12:02:40;9.63;;;7.28;;
69894;SDS011;57172;52.034;5.090;2023-05-07T12:05:09;10.20;;;6.90;;
69894;SDS011;57172;52.034;5.090;2023-05-07T12:07:36;9.90;;;7.17;;
69894;SDS011;57172;52.034;5.090;2023-05-07T12:10:04;9.85;;;7.70;;
69894;SDS011;57172;52.034;5.090;2023-05-07T12:12:38;8.90;;;6.95;;
69894;SDS011;57172;52.034;5.090;2023-05-07T12:15:06;9.45;;;6.35;;
69894;SDS011;57172;52.034;5.090;2023-05-07T12:17:34;10.18;;;6.97;;
69894;SDS011;57172;52.034;5.090;2023-05-07T12:20:01;10.13;;;7.20;;
69894;SDS011;57172;52.034;5.090;2023-05-07T12:22:29;10.20;;;7.32;;
69894;SDS011;57172;52.034;5.090;2023-05-07T12:24:57;9.93;;;7.60;;
69894;SDS011;57172;52.034;5.090;2023-05-07T12:27:25;11.32;;;7.25;;
69894;SDS011;57172;52.034;5.090;2023-05-07T12:29:52;9.65;;;7.70;;
69894;SDS011;57172;52.034;5.090;2023-05-07T12:32:20;8.20;;;5.93;;
69894;SDS011;57172;52.034;5.090;2023-05-07T12:34:51;7.75;;;6.10;;
69894;SDS011;57172;52.034;5.090;2023-05-07T12:37:23;7.80;;;5.30;;
69894;SDS011;57172;52.034;5.090;2023-05-07T12:40:04;8.23;;;5.60;;
69894;SDS011;57172;52.034;5.090;2023-05-07T12:42:35;6.68;;;4.50;;
69894;SDS011;57172;52.034;5.090;2023-05-07T12:45:16;7.03;;;4.67;;
69894;SDS011;57172;52.034;5.090;2023-05-07T12:47:47;6.95;;;4.00;;
69894;SDS011;57172;52.034;5.090;2023-05-07T12:50:15;6.00;;;3.00;;
69894;SDS011;57172;52.034;5.090;2023-05-07T12:52:45;7.47;;;3.20;;
69894;SDS011;57172;52.034;5.090;2023-05-07T12:55:14;9.40;;;2.92;;
69894;SDS011;57172;52.034;5.090;2023-05-07T12:57:43;7.10;;;3.20;;
69894;SDS011;57172;52.034;5.090;2023-05-07T13:00:14;5.72;;;3.03;;
69894;SDS011;57172;52.034;5.090;2023-05-07T13:02:41;6.60;;;3.60;;
69894;SDS011;57172;52.034;5.090;2023-05-07T13:05:13;6.38;;;2.83;;
69894;SDS011;57172;52.034;5.090;2023-05-07T13:07:40;6.60;;;2.70;;
69894;SDS011;57172;52.034;5.090;2023-05-07T13:10:08;6.57;;;2.70;;
69894;SDS011;57172;52.034;5.090;2023-05-07T13:12:35;5.22;;;2.72;;
69894;SDS011;57172;52.034;5.090;2023-05-07T13:15:02;6.53;;;2.90;;
69894;SDS011;57172;52.034;5.090;2023-05-07T13:17:29;5.60;;;2.60;;
69894;SDS011;57172;52.034;5.090;2023-05-07T13:19:58;6.38;;;3.28;;
69894;SDS011;57172;52.034;5.090;2023-05-07T13:22:24;7.27;;;3.50;;
69894;SDS011;57172;52.034;5.090;2023-05-07T13:24:51;6.43;;;3.90;;
69894;SDS011;57172;52.034;5.090;2023-05-07T13:27:18;7.35;;;3.38;;
69894;SDS011;57172;52.034;5.090;2023-05-07T13:29:45;6.38;;;3.45;;
69894;SDS011;57172;52.034;5.090;2023-05-07T13:32:12;7.53;;;3.53;;
69894;SDS011;57172;52.034;5.090;2023-05-07T13:34:39;7.30;;;3.60;;
69894;SDS011;57172;52.034;5.090;2023-05-07T13:37:06;8.43;;;3.80;;
69894;SDS011;57172;52.034;5.090;2023-05-07T13:39:36;7.22;;;3.70;;
69894;SDS011;57172;52.034;5.090;2023-05-07T13:42:03;5.88;;;3.42;;
69894;SDS011;57172;52.034;5.090;2023-05-07T13:44:30;7.07;;;3.45;;
69894;SDS011;57172;52.034;5.090;2023-05-07T13:46:57;5.60;;;3.77;;
69894;SDS011;57172;52.034;5.090;2023-05-07T13:49:24;8.23;;;4.00;;
69894;SDS011;57172;52.034;5.090;2023-05-07T13:51:51;5.85;;;3.28;;
69894;SDS011;57172;52.034;5.090;2023-05-07T13:54:18;7.15;;;3.60;;
69894;SDS011;57172;52.034;5.090;2023-05-07T13:56:44;5.85;;;3.90;;
69894;SDS011;57172;52.034;5.090;2023-05-07T13:59:11;7.90;;;4.60;;
69894;SDS011;57172;52.034;5.090;2023-05-07T14:01:40;7.57;;;4.85;;
69894;SDS011;57172;52.034;5.090;2023-05-07T14:04:07;8.27;;;5.07;;
69894;SDS011;57172;52.034;5.090;2023-05-07T14:06:34;7.72;;;4.85;;
69894;SDS011;57172;52.034;5.090;2023-05-07T14:09:01;10.23;;;5.82;;
69894;SDS011;57172;52.034;5.090;2023-05-07T14:11:28;8.13;;;5.77;;
69894;SDS011;57172;52.034;5.090;2023-05-07T14:13:55;10.32;;;6.30;;
69894;SDS011;57172;52.034;5.090;2023-05-07T14:16:23;9.25;;;6.78;;
69894;SDS011;57172;52.034;5.090;2023-05-07T14:18:49;11.05;;;6.82;;
69894;SDS011;57172;52.034;5.090;2023-05-07T14:21:16;9.07;;;6.22;;
69894;SDS011;57172;52.034;5.090;2023-05-07T14:23:43;10.33;;;7.53;;
69894;SDS011;57172;52.034;5.090;2023-05-07T14:26:10;10.55;;;7.20;;
69894;SDS011;57172;52.034;5.090;2023-05-07T14:28:37;11.27;;;7.28;;
69894;SDS011;57172;52.034;5.090;2023-05-07T14:31:05;8.20;;;5.57;;
69894;SDS011;57172;52.034;5.090;2023-05-07T14:33:33;9.02;;;5.40;;
69894;SDS011;57172;52.034;5.090;2023-05-07T14:35:59;8.60;;;6.20;;
69894;SDS011;57172;52.034;5.090;2023-05-07T14:38:26;12.02;;;6.82;;
69894;SDS011;57172;52.034;5.090;2023-05-07T14:40:53;12.98;;;7.78;;
69894;SDS011;57172;52.034;5.090;2023-05-07T14:43:22;20.23;;;10.40;;
69894;SDS011;57172;52.034;5.090;2023-05-07T14:45:49;22.67;;;11.57;;
69894;SDS011;57172;52.034;5.090;2023-05-07T14:48:16;59.70;;;13.73;;
69894;SDS011;57172;52.034;5.090;2023-05-07T14:50:47;68.15;;;13.82;;
69894;SDS011;57172;52.034;5.090;2023-05-07T14:53:15;29.50;;;11.88;;
69894;SDS011;57172;52.034;5.090;2023-05-07T14:55:42;41.55;;;13.52;;
69894;SDS011;57172;52.034;5.090;2023-05-07T14:58:12;17.80;;;12.25;;
69894;SDS011;57172;52.034;5.090;2023-05-07T15:00:40;20.03;;;12.73;;
69894;SDS011;57172;52.034;5.090;2023-05-07T15:03:09;18.63;;;12.93;;
69894;SDS011;57172;52.034;5.090;2023-05-07T15:05:39;16.80;;;11.93;;
69894;SDS011;57172;52.034;5.090;2023-05-07T15:08:06;14.18;;;11.13;;